sensor_id;sensor_type;location;lat;lon;timestamp;pressure;altitude;pressure_sealevel;temperature;humidity
11124;BME280;5616;42.692;23.312;2022-07-05T00:00:48;95236.72;;;23.43;43.04
11124;BME280;5616;42.692;23.312;2022-07-05T00:03:15;95224.59;;;23.47;42.10
11124;BME280;5616;42.692;23.312;2022-07-05T00:05:43;95221.69;;;23.39;43.03
11124;BME280;5616;42.692;23.312;2022-07-05T00:08:10;95226.88;;;23.34;42.80
11124;BME280;5616;42.692;23.312;2022-07-05T00:10:37;95225.53;;;23.26;43.94
11124;BME280;5616;42.692;23.312;2022-07-05T00:13:05;95221.06;;;23.32;43.57
11124;BME280;5616;42.692;23.312;2022-07-05T00:15:32;95224.56;;;23.37;43.92
11124;BME280;5616;42.692;23.312;2022-07-05T00:18:00;95234.19;;;23.17;42.81
11124;BME280;5616;42.692;23.312;2022-07-05T00:20:26;95220.84;;;23.33;42.39
11124;BME280;5616;42.692;23.312;2022-07-05T00:22:55;95215.88;;;23.42;41.36
11124;BME280;5616;42.692;23.312;2022-07-05T00:25:22;95221.94;;;23.37;42.17
11124;BME280;5616;42.692;23.312;2022-07-05T00:27:49;95233.78;;;23.40;42.32
11124;BME280;5616;42.692;23.312;2022-07-05T00:30:16;95220.81;;;23.28;42.92
11124;BME280;5616;42.692;23.312;2022-07-05T00:32:43;95216.66;;;23.37;41.65
11124;BME280;5616;42.692;23.312;2022-07-05T00:35:10;95219.28;;;23.37;43.40
11124;BME280;5616;42.692;23.312;2022-07-05T00:37:38;95216.31;;;23.29;42.46
11124;BME280;5616;42.692;23.312;2022-07-05T00:40:07;95217.97;;;23.40;42.19
11124;BME280;5616;42.692;23.312;2022-07-05T00:42:34;95228.03;;;23.48;42.87
11124;BME280;5616;42.692;23.312;2022-07-05T00:45:03;95226.41;;;23.42;41.70
11124;BME280;5616;42.692;23.312;2022-07-05T00:47:30;95217.63;;;23.31;42.61
11124;BME280;5616;42.692;23.312;2022-07-05T00:49:57;95213.16;;;23.32;42.20
11124;BME280;5616;42.692;23.312;2022-07-05T00:52:24;95212.81;;;23.13;43.37
11124;BME280;5616;42.692;23.312;2022-07-05T00:54:51;95217.06;;;23.19;42.13
11124;BME280;5616;42.692;23.312;2022-07-05T00:57:21;95218.63;;;23.15;42.49
11124;BME280;5616;42.692;23.312;2022-07-05T00:59:49;95222.34;;;23.19;43.34
11124;BME280;5616;42.692;23.312;2022-07-05T01:02:16;95217.88;;;23.20;42.28
11124;BME280;5616;42.692;23.312;2022-07-05T01:04:47;95219.94;;;23.12;42.93
11124;BME280;5616;42.692;23.312;2022-07-05T01:07:14;95228.88;;;23.11;43.55
11124;BME280;5616;42.692;23.312;2022-07-05T01:09:41;95229.84;;;23.00;43.26
11124;BME280;5616;42.692;23.312;2022-07-05T01:12:08;95232.75;;;22.99;42.70
11124;BME280;5616;42.692;23.312;2022-07-05T01:14:37;95232.75;;;22.99;42.21
11124;BME280;5616;42.692;23.312;2022-07-05T01:17:04;95231.13;;;22.93;42.78
11124;BME280;5616;42.692;23.312;2022-07-05T01:19:31;95229.31;;;22.98;42.43
11124;BME280;5616;42.692;23.312;2022-07-05T01:22:01;95230.84;;;22.89;43.37
11124;BME280;5616;42.692;23.312;2022-07-05T01:24:31;95238.16;;;22.82;43.51
11124;BME280;5616;42.692;23.312;2022-07-05T01:26:59;95235.19;;;22.74;44.25
11124;BME280;5616;42.692;23.312;2022-07-05T01:29:26;95241.34;;;22.58;44.35
11124;BME280;5616;42.692;23.312;2022-07-05T01:31:53;95238.78;;;22.63;44.75
11124;BME280;5616;42.692;23.312;2022-07-05T01:34:20;95239.09;;;22.66;44.57
11124;BME280;5616;42.692;23.312;2022-07-05T01:36:47;95233.53;;;22.63;44.70
11124;BME280;5616;42.692;23.312;2022-07-05T01:39:15;95239.66;;;22.73;43.54
11124;BME280;5616;42.692;23.312;2022-07-05T01:41:43;95231.22;;;22.71;44.08
11124;BME280;5616;42.692;23.312;2022-07-05T01:44:11;95228.50;;;22.61;44.77
11124;BME280;5616;42.692;23.312;2022-07-05T01:46:38;95223.69;;;22.53;44.65
11124;BME280;5616;42.692;23.312;2022-07-05T01:49:08;95217.16;;;22.61;44.71
11124;BME280;5616;42.692;23.312;2022-07-05T01:51:40;95226.28;;;22.48;46.10
11124;BME280;5616;42.692;23.312;2022-07-05T01:54:08;95231.34;;;22.54;44.04
11124;BME280;5616;42.692;23.312;2022-07-05T01:56:36;95227.34;;;22.52;46.40
11124;BME280;5616;42.692;23.312;2022-07-05T01:59:05;95234.56;;;22.62;45.04
11124;BME280;5616;42.692;23.312;2022-07-05T02:01:34;95229.53;;;22.60;44.71
11124;BME280;5616;42.692;23.312;2022-07-05T02:04:03;95234.91;;;22.65;44.81
11124;BME280;5616;42.692;23.312;2022-07-05T02:06:31;95219.56;;;22.62;45.29
11124;BME280;5616;42.692;23.312;2022-07-05T02:08:59;95222.09;;;22.52;45.84
11124;BME280;5616;42.692;23.312;2022-07-05T02:11:27;95226.88;;;22.55;45.90
11124;BME280;5616;42.692;23.312;2022-07-05T02:13:54;95226.66;;;22.62;46.47
11124;BME280;5616;42.692;23.312;2022-07-05T02:16:24;95230.59;;;22.59;45.70
11124;BME280;5616;42.692;23.312;2022-07-05T02:18:51;95229.25;;;22.57;44.79
11124;BME280;5616;42.692;23.312;2022-07-05T02:21:18;95236.56;;;22.49;45.61
11124;BME280;5616;42.692;23.312;2022-07-05T02:23:48;95230.53;;;22.49;45.08
11124;BME280;5616;42.692;23.312;2022-07-05T02:26:15;95232.50;;;22.37;45.86
11124;BME280;5616;42.692;23.312;2022-07-05T02:29:13;95247.78;;;22.40;46.22
11124;BME280;5616;42.692;23.312;2022-07-05T02:31:41;95242.22;;;22.36;45.92
11124;BME280;5616;42.692;23.312;2022-07-05T02:34:08;95240.34;;;22.32;46.34
11124;BME280;5616;42.692;23.312;2022-07-05T02:36:36;95244.22;;;22.24;46.58
11124;BME280;5616;42.692;23.312;2022-07-05T02:39:06;95250.38;;;22.35;46.57
11124;BME280;5616;42.692;23.312;2022-07-05T02:41:34;95247.13;;;22.23;45.93
11124;BME280;5616;42.692;23.312;2022-07-05T02:44:01;95243.97;;;22.26;46.59
11124;BME280;5616;42.692;23.312;2022-07-05T02:46:29;95253.50;;;22.32;47.11
11124;BME280;5616;42.692;23.312;2022-07-05T02:49:00;95251.69;;;22.32;46.94
11124;BME280;5616;42.692;23.312;2022-07-05T02:51:31;95253.47;;;22.27;46.58
11124;BME280;5616;42.692;23.312;2022-07-05T02:53:59;95249.34;;;22.09;47.19
11124;BME280;5616;42.692;23.312;2022-07-05T02:56:27;95255.19;;;22.16;47.11
11124;BME280;5616;42.692;23.312;2022-07-05T02:58:55;95256.34;;;22.25;46.66
11124;BME280;5616;42.692;23.312;2022-07-05T03:01:23;95251.53;;;22.17;46.94
11124;BME280;5616;42.692;23.312;2022-07-05T03:03:52;95253.94;;;21.97;47.81
11124;BME280;5616;42.692;23.312;2022-07-05T03:06:21;95254.28;;;21.84;49.20
11124;BME280;5616;42.692;23.312;2022-07-05T03:08:48;95259.06;;;22.09;50.23
11124;BME280;5616;42.692;23.312;2022-07-05T03:11:15;95261.00;;;22.18;51.83
11124;BME280;5616;42.692;23.312;2022-07-05T03:13:43;95264.47;;;22.24;58.27
11124;BME280;5616;42.692;23.312;2022-07-05T03:16:11;95256.81;;;22.17;59.65
11124;BME280;5616;42.692;23.312;2022-07-05T03:18:38;95259.47;;;22.22;65.31
11124;BME280;5616;42.692;23.312;2022-07-05T03:21:08;95264.84;;;22.32;58.19
11124;BME280;5616;42.692;23.312;2022-07-05T03:23:36;95257.81;;;22.43;64.85
11124;BME280;5616;42.692;23.312;2022-07-05T03:26:03;95255.75;;;22.18;56.64
11124;BME280;5616;42.692;23.312;2022-07-05T03:28:30;95250.59;;;22.02;55.97
11124;BME280;5616;42.692;23.312;2022-07-05T03:30:59;95252.00;;;22.09;54.92
11124;BME280;5616;42.692;23.312;2022-07-05T03:33:26;95258.63;;;22.17;54.69
11124;BME280;5616;42.692;23.312;2022-07-05T03:35:54;95257.91;;;22.00;55.18
11124;BME280;5616;42.692;23.312;2022-07-05T03:38:22;95256.88;;;22.01;54.94
11124;BME280;5616;42.692;23.312;2022-07-05T03:40:49;95259.03;;;22.04;56.05
11124;BME280;5616;42.692;23.312;2022-07-05T03:43:17;95250.06;;;22.05;59.77
11124;BME280;5616;42.692;23.312;2022-07-05T03:45:44;95246.91;;;22.03;55.26
11124;BME280;5616;42.692;23.312;2022-07-05T03:48:11;95247.69;;;22.03;55.03
11124;BME280;5616;42.692;23.312;2022-07-05T03:50:38;95248.00;;;22.07;54.39
11124;BME280;5616;42.692;23.312;2022-07-05T03:53:05;95249.91;;;22.11;55.02
11124;BME280;5616;42.692;23.312;2022-07-05T03:55:34;95246.31;;;21.96;55.57
11124;BME280;5616;42.692;23.312;2022-07-05T03:58:01;95248.94;;;21.96;54.72
11124;BME280;5616;42.692;23.312;2022-07-05T04:00:28;95242.50;;;22.08;53.63
11124;BME280;5616;42.692;23.312;2022-07-05T04:03:01;95235.34;;;22.04;53.55
11124;BME280;5616;42.692;23.312;2022-07-05T04:05:29;95244.19;;;22.19;52.86
11124;BME280;5616;42.692;23.312;2022-07-05T04:07:57;95242.06;;;22.16;54.39
11124;BME280;5616;42.692;23.312;2022-07-05T04:10:30;95245.22;;;22.18;53.93
11124;BME280;5616;42.692;23.312;2022-07-05T04:12:58;95246.59;;;22.26;53.19
11124;BME280;5616;42.692;23.312;2022-07-05T04:15:27;95238.78;;;22.31;53.20
11124;BME280;5616;42.692;23.312;2022-07-05T04:17:57;95246.50;;;22.16;54.22
11124;BME280;5616;42.692;23.312;2022-07-05T04:20:27;95252.84;;;22.15;55.19
11124;BME280;5616;42.692;23.312;2022-07-05T04:22:55;95250.97;;;22.15;56.42
11124;BME280;5616;42.692;23.312;2022-07-05T04:25:24;95248.25;;;22.32;55.56
11124;BME280;5616;42.692;23.312;2022-07-05T04:28:02;95250.97;;;22.42;53.64
11124;BME280;5616;42.692;23.312;2022-07-05T04:30:31;95252.97;;;22.30;55.44
11124;BME280;5616;42.692;23.312;2022-07-05T04:32:58;95255.66;;;22.35;56.12
11124;BME280;5616;42.692;23.312;2022-07-05T04:35:26;95251.41;;;22.34;56.68
11124;BME280;5616;42.692;23.312;2022-07-05T04:37:54;95247.22;;;22.33;56.82
11124;BME280;5616;42.692;23.312;2022-07-05T04:40:22;95247.84;;;22.45;55.97
11124;BME280;5616;42.692;23.312;2022-07-05T04:42:50;95242.66;;;22.55;53.48
11124;BME280;5616;42.692;23.312;2022-07-05T04:45:19;95247.00;;;22.66;52.39
11124;BME280;5616;42.692;23.312;2022-07-05T04:47:47;95247.28;;;22.70;52.50
11124;BME280;5616;42.692;23.312;2022-07-05T04:50:14;95251.53;;;22.76;51.65
11124;BME280;5616;42.692;23.312;2022-07-05T04:52:42;95249.53;;;22.88;51.31
11124;BME280;5616;42.692;23.312;2022-07-05T04:55:09;95251.69;;;22.96;51.67
11124;BME280;5616;42.692;23.312;2022-07-05T04:57:37;95249.44;;;23.14;52.16
11124;BME280;5616;42.692;23.312;2022-07-05T05:00:05;95254.25;;;23.23;52.64
11124;BME280;5616;42.692;23.312;2022-07-05T05:02:34;95249.59;;;23.40;53.25
11124;BME280;5616;42.692;23.312;2022-07-05T05:05:01;95254.41;;;23.53;51.16
11124;BME280;5616;42.692;23.312;2022-07-05T05:07:28;95254.22;;;23.64;52.03
11124;BME280;5616;42.692;23.312;2022-07-05T05:09:55;95250.09;;;23.94;49.95
11124;BME280;5616;42.692;23.312;2022-07-05T05:12:22;95262.34;;;24.30;49.49
11124;BME280;5616;42.692;23.312;2022-07-05T05:14:49;95256.28;;;24.29;48.48
11124;BME280;5616;42.692;23.312;2022-07-05T05:17:16;95257.38;;;24.64;48.43
11124;BME280;5616;42.692;23.312;2022-07-05T05:19:45;95257.09;;;25.11;47.22
11124;BME280;5616;42.692;23.312;2022-07-05T05:22:12;95258.84;;;25.61;44.81
11124;BME280;5616;42.692;23.312;2022-07-05T05:24:38;95249.25;;;25.85;44.17
11124;BME280;5616;42.692;23.312;2022-07-05T05:27:05;95247.81;;;26.13;45.37
11124;BME280;5616;42.692;23.312;2022-07-05T05:29:32;95258.31;;;26.66;44.45
11124;BME280;5616;42.692;23.312;2022-07-05T05:31:59;95256.84;;;27.18;41.76
11124;BME280;5616;42.692;23.312;2022-07-05T05:34:26;95253.78;;;27.58;40.63
11124;BME280;5616;42.692;23.312;2022-07-05T05:36:54;95246.31;;;28.08;38.92
11124;BME280;5616;42.692;23.312;2022-07-05T05:39:21;95249.31;;;28.57;37.49
11124;BME280;5616;42.692;23.312;2022-07-05T05:41:48;95254.16;;;28.87;38.50
11124;BME280;5616;42.692;23.312;2022-07-05T05:44:15;95249.38;;;29.35;37.42
11124;BME280;5616;42.692;23.312;2022-07-05T05:46:42;95246.72;;;29.03;38.08
11124;BME280;5616;42.692;23.312;2022-07-05T05:49:09;95249.69;;;29.01;37.45
11124;BME280;5616;42.692;23.312;2022-07-05T05:51:36;95246.31;;;29.28;36.53
11124;BME280;5616;42.692;23.312;2022-07-05T05:54:04;95242.72;;;29.79;35.88
11124;BME280;5616;42.692;23.312;2022-07-05T05:56:31;95246.22;;;30.15;35.25
11124;BME280;5616;42.692;23.312;2022-07-05T05:58:58;95261.13;;;30.65;35.55
11124;BME280;5616;42.692;23.312;2022-07-05T06:01:25;95258.50;;;31.18;35.11
11124;BME280;5616;42.692;23.312;2022-07-05T06:03:52;95264.19;;;31.48;31.63
11124;BME280;5616;42.692;23.312;2022-07-05T06:06:19;95261.25;;;31.35;32.45
11124;BME280;5616;42.692;23.312;2022-07-05T06:08:45;95262.84;;;31.67;32.08
11124;BME280;5616;42.692;23.312;2022-07-05T06:11:14;95260.97;;;31.68;32.76
11124;BME280;5616;42.692;23.312;2022-07-05T06:13:41;95264.13;;;32.43;30.59
11124;BME280;5616;42.692;23.312;2022-07-05T06:16:08;95254.19;;;33.04;31.12
11124;BME280;5616;42.692;23.312;2022-07-05T06:18:35;95259.41;;;33.17;31.07
11124;BME280;5616;42.692;23.312;2022-07-05T06:21:02;95260.66;;;33.75;29.56
11124;BME280;5616;42.692;23.312;2022-07-05T06:23:29;95260.94;;;34.61;27.79
11124;BME280;5616;42.692;23.312;2022-07-05T06:25:56;95272.19;;;35.74;26.04
11124;BME280;5616;42.692;23.312;2022-07-05T06:28:25;95272.06;;;36.43;25.88
11124;BME280;5616;42.692;23.312;2022-07-05T06:30:52;95262.91;;;37.86;22.52
11124;BME280;5616;42.692;23.312;2022-07-05T06:33:19;95268.41;;;39.36;21.18
11124;BME280;5616;42.692;23.312;2022-07-05T06:35:46;95272.97;;;40.22;20.99
11124;BME280;5616;42.692;23.312;2022-07-05T06:38:13;95268.19;;;41.68;19.58
11124;BME280;5616;42.692;23.312;2022-07-05T06:40:41;95273.75;;;43.02;19.45
11124;BME280;5616;42.692;23.312;2022-07-05T06:43:11;95266.03;;;41.84;18.92
11124;BME280;5616;42.692;23.312;2022-07-05T06:45:55;95262.97;;;43.30;18.45
11124;BME280;5616;42.692;23.312;2022-07-05T06:48:22;95268.91;;;43.89;16.88
11124;BME280;5616;42.692;23.312;2022-07-05T06:50:49;95268.75;;;44.77;16.74
11124;BME280;5616;42.692;23.312;2022-07-05T06:53:16;95263.44;;;44.13;17.39
11124;BME280;5616;42.692;23.312;2022-07-05T06:55:43;95251.38;;;44.35;17.33
11124;BME280;5616;42.692;23.312;2022-07-05T06:58:11;95249.84;;;43.81;16.90
11124;BME280;5616;42.692;23.312;2022-07-05T07:00:38;95247.84;;;41.92;18.84
11124;BME280;5616;42.692;23.312;2022-07-05T07:03:07;95248.31;;;40.27;19.51
11124;BME280;5616;42.692;23.312;2022-07-05T07:05:34;95238.03;;;42.24;18.70
11124;BME280;5616;42.692;23.312;2022-07-05T07:08:01;95238.16;;;44.06;16.65
11124;BME280;5616;42.692;23.312;2022-07-05T07:10:45;95245.63;;;45.79;15.54
11124;BME280;5616;42.692;23.312;2022-07-05T07:13:12;95249.69;;;47.16;14.89
11124;BME280;5616;42.692;23.312;2022-07-05T07:15:39;95251.03;;;47.58;14.03
11124;BME280;5616;42.692;23.312;2022-07-05T07:18:07;95256.97;;;46.96;14.35
11124;BME280;5616;42.692;23.312;2022-07-05T07:20:34;95252.66;;;47.79;13.33
11124;BME280;5616;42.692;23.312;2022-07-05T07:23:01;95260.03;;;47.85;13.07
11124;BME280;5616;42.692;23.312;2022-07-05T07:25:28;95256.28;;;47.49;13.93
11124;BME280;5616;42.692;23.312;2022-07-05T07:27:55;95256.00;;;46.42;14.94
11124;BME280;5616;42.692;23.312;2022-07-05T07:30:24;95254.88;;;46.73;15.04
11124;BME280;5616;42.692;23.312;2022-07-05T07:32:51;95256.56;;;46.60;15.12
11124;BME280;5616;42.692;23.312;2022-07-05T07:35:20;95256.19;;;46.62;14.69
11124;BME280;5616;42.692;23.312;2022-07-05T07:37:47;95250.84;;;46.85;14.66
11124;BME280;5616;42.692;23.312;2022-07-05T07:40:14;95247.69;;;47.47;14.01
11124;BME280;5616;42.692;23.312;2022-07-05T07:42:41;95239.31;;;48.31;13.31
11124;BME280;5616;42.692;23.312;2022-07-05T07:45:08;95243.88;;;46.81;14.32
11124;BME280;5616;42.692;23.312;2022-07-05T07:47:36;95235.22;;;47.43;13.53
11124;BME280;5616;42.692;23.312;2022-07-05T07:50:04;95244.16;;;48.23;12.88
11124;BME280;5616;42.692;23.312;2022-07-05T07:52:33;95239.00;;;48.45;12.86
11124;BME280;5616;42.692;23.312;2022-07-05T07:55:02;95239.03;;;48.84;13.43
11124;BME280;5616;42.692;23.312;2022-07-05T07:57:29;95240.41;;;47.64;14.03
11124;BME280;5616;42.692;23.312;2022-07-05T07:59:56;95240.34;;;48.14;13.53
11124;BME280;5616;42.692;23.312;2022-07-05T08:02:23;95245.38;;;48.81;12.89
11124;BME280;5616;42.692;23.312;2022-07-05T08:04:50;95237.16;;;49.37;13.53
11124;BME280;5616;42.692;23.312;2022-07-05T08:07:17;95245.50;;;49.49;13.32
11124;BME280;5616;42.692;23.312;2022-07-05T08:09:46;95238.22;;;48.25;13.36
11124;BME280;5616;42.692;23.312;2022-07-05T08:12:13;95243.56;;;48.32;13.12
11124;BME280;5616;42.692;23.312;2022-07-05T08:14:40;95231.31;;;48.17;14.13
11124;BME280;5616;42.692;23.312;2022-07-05T08:17:07;95231.53;;;46.99;13.94
11124;BME280;5616;42.692;23.312;2022-07-05T08:19:35;95231.47;;;47.03;14.98
11124;BME280;5616;42.692;23.312;2022-07-05T08:22:19;95231.63;;;46.58;14.51
11124;BME280;5616;42.692;23.312;2022-07-05T08:24:47;95225.09;;;46.83;14.02
11124;BME280;5616;42.692;23.312;2022-07-05T08:27:14;95224.03;;;47.60;14.00
11124;BME280;5616;42.692;23.312;2022-07-05T08:29:42;95218.97;;;47.59;14.25
11124;BME280;5616;42.692;23.312;2022-07-05T08:32:09;95230.13;;;46.54;14.54
11124;BME280;5616;42.692;23.312;2022-07-05T08:34:37;95222.69;;;46.88;13.85
11124;BME280;5616;42.692;23.312;2022-07-05T08:37:04;95210.78;;;45.42;15.89
11124;BME280;5616;42.692;23.312;2022-07-05T08:39:31;95208.63;;;46.56;16.27
11124;BME280;5616;42.692;23.312;2022-07-05T08:42:00;95210.13;;;46.94;14.41
11124;BME280;5616;42.692;23.312;2022-07-05T08:44:28;95203.25;;;46.79;15.25
11124;BME280;5616;42.692;23.312;2022-07-05T08:46:56;95202.44;;;46.52;15.00
11124;BME280;5616;42.692;23.312;2022-07-05T08:49:26;95209.91;;;46.44;14.68
11124;BME280;5616;42.692;23.312;2022-07-05T08:51:54;95202.84;;;45.03;16.25
11124;BME280;5616;42.692;23.312;2022-07-05T08:54:22;95201.81;;;45.93;15.44
11124;BME280;5616;42.692;23.312;2022-07-05T08:56:51;95201.88;;;44.62;16.36
11124;BME280;5616;42.692;23.312;2022-07-05T08:59:19;95195.53;;;42.60;17.43
11124;BME280;5616;42.692;23.312;2022-07-05T09:01:46;95197.28;;;43.07;17.40
11124;BME280;5616;42.692;23.312;2022-07-05T09:04:16;95185.69;;;43.88;17.86
11124;BME280;5616;42.692;23.312;2022-07-05T09:06:46;95180.94;;;41.59;18.42
11124;BME280;5616;42.692;23.312;2022-07-05T09:09:17;95170.50;;;43.30;18.75
11124;BME280;5616;42.692;23.312;2022-07-05T09:11:45;95173.97;;;43.09;17.74
11124;BME280;5616;42.692;23.312;2022-07-05T09:14:21;95175.78;;;42.70;19.40
11124;BME280;5616;42.692;23.312;2022-07-05T09:16:48;95168.09;;;42.90;18.83
11124;BME280;5616;42.692;23.312;2022-07-05T09:19:15;95168.13;;;42.93;18.82
11124;BME280;5616;42.692;23.312;2022-07-05T09:21:43;95157.66;;;42.99;19.00
11124;BME280;5616;42.692;23.312;2022-07-05T09:24:11;95157.69;;;43.09;18.27
11124;BME280;5616;42.692;23.312;2022-07-05T09:26:40;95152.66;;;43.54;17.78
11124;BME280;5616;42.692;23.312;2022-07-05T09:29:09;95165.50;;;43.78;17.95
11124;BME280;5616;42.692;23.312;2022-07-05T09:31:39;95163.53;;;43.71;17.89
11124;BME280;5616;42.692;23.312;2022-07-05T09:34:07;95152.22;;;43.98;17.48
11124;BME280;5616;42.692;23.312;2022-07-05T09:36:54;95146.69;;;42.67;20.10
11124;BME280;5616;42.692;23.312;2022-07-05T09:39:35;95142.91;;;43.17;19.31
11124;BME280;5616;42.692;23.312;2022-07-05T09:42:14;95147.66;;;42.24;18.86
11124;BME280;5616;42.692;23.312;2022-07-05T09:44:44;95139.13;;;40.79;21.18
11124;BME280;5616;42.692;23.312;2022-07-05T09:47:14;95142.03;;;38.84;22.89
11124;BME280;5616;42.692;23.312;2022-07-05T09:49:43;95136.69;;;38.45;24.32
11124;BME280;5616;42.692;23.312;2022-07-05T09:52:11;95130.38;;;38.03;23.65
11124;BME280;5616;42.692;23.312;2022-07-05T09:54:38;95123.19;;;37.10;25.55
11124;BME280;5616;42.692;23.312;2022-07-05T09:57:06;95120.13;;;36.96;25.66
11124;BME280;5616;42.692;23.312;2022-07-05T09:59:32;95124.78;;;36.40;28.19
11124;BME280;5616;42.692;23.312;2022-07-05T10:01:59;95128.81;;;36.06;27.77
11124;BME280;5616;42.692;23.312;2022-07-05T10:04:28;95109.41;;;35.60;28.70
11124;BME280;5616;42.692;23.312;2022-07-05T10:06:55;95109.84;;;35.63;29.42
11124;BME280;5616;42.692;23.312;2022-07-05T10:09:22;95119.78;;;35.62;28.20
11124;BME280;5616;42.692;23.312;2022-07-05T10:11:50;95120.00;;;35.21;28.33
11124;BME280;5616;42.692;23.312;2022-07-05T10:14:19;95113.59;;;35.01;28.86
11124;BME280;5616;42.692;23.312;2022-07-05T10:16:52;95108.31;;;34.80;29.49
11124;BME280;5616;42.692;23.312;2022-07-05T10:19:26;95108.22;;;34.89;29.21
11124;BME280;5616;42.692;23.312;2022-07-05T10:21:56;95101.25;;;34.88;29.22
11124;BME280;5616;42.692;23.312;2022-07-05T10:24:24;95093.88;;;34.73;29.62
11124;BME280;5616;42.692;23.312;2022-07-05T10:26:53;95096.91;;;34.83;29.31
11124;BME280;5616;42.692;23.312;2022-07-05T10:29:21;95083.22;;;34.64;29.24
11124;BME280;5616;42.692;23.312;2022-07-05T10:31:48;95094.78;;;34.77;28.48
11124;BME280;5616;42.692;23.312;2022-07-05T10:34:17;95088.75;;;34.47;28.12
11124;BME280;5616;42.692;23.312;2022-07-05T10:36:45;95087.84;;;34.10;29.62
11124;BME280;5616;42.692;23.312;2022-07-05T10:39:14;95087.94;;;34.14;28.91
11124;BME280;5616;42.692;23.312;2022-07-05T10:41:42;95086.00;;;34.23;30.11
11124;BME280;5616;42.692;23.312;2022-07-05T10:44:09;95082.34;;;34.07;29.31
11124;BME280;5616;42.692;23.312;2022-07-05T10:46:37;95079.19;;;34.05;30.21
11124;BME280;5616;42.692;23.312;2022-07-05T10:49:11;95081.47;;;33.94;32.46
11124;BME280;5616;42.692;23.312;2022-07-05T10:51:38;95084.16;;;34.15;29.55
11124;BME280;5616;42.692;23.312;2022-07-05T10:54:05;95085.28;;;34.14;32.34
11124;BME280;5616;42.692;23.312;2022-07-05T10:56:34;95077.81;;;33.99;30.47
11124;BME280;5616;42.692;23.312;2022-07-05T10:59:09;95080.13;;;34.09;29.70
11124;BME280;5616;42.692;23.312;2022-07-05T11:01:41;95066.91;;;33.83;30.58
11124;BME280;5616;42.692;23.312;2022-07-05T11:04:26;95063.72;;;34.10;33.30
11124;BME280;5616;42.692;23.312;2022-07-05T11:06:55;95070.25;;;34.21;31.55
11124;BME280;5616;42.692;23.312;2022-07-05T11:09:23;95058.94;;;34.16;31.61
11124;BME280;5616;42.692;23.312;2022-07-05T11:12:11;95054.81;;;33.98;31.43
11124;BME280;5616;42.692;23.312;2022-07-05T11:14:45;95049.47;;;34.18;31.39
11124;BME280;5616;42.692;23.312;2022-07-05T11:17:17;95042.97;;;34.19;30.45
11124;BME280;5616;42.692;23.312;2022-07-05T11:19:59;95052.00;;;34.15;33.63
11124;BME280;5616;42.692;23.312;2022-07-05T11:22:26;95041.22;;;34.35;30.52
11124;BME280;5616;42.692;23.312;2022-07-05T11:24:55;95030.94;;;34.25;32.40
11124;BME280;5616;42.692;23.312;2022-07-05T11:27:23;95037.06;;;34.26;31.53
11124;BME280;5616;42.692;23.312;2022-07-05T11:29:51;95041.78;;;34.29;32.94
11124;BME280;5616;42.692;23.312;2022-07-05T11:32:20;95038.47;;;34.44;30.58
11124;BME280;5616;42.692;23.312;2022-07-05T11:34:49;95031.66;;;34.47;29.98
11124;BME280;5616;42.692;23.312;2022-07-05T11:37:20;95029.78;;;34.59;29.76
11124;BME280;5616;42.692;23.312;2022-07-05T11:43:00;95022.59;;;34.51;35.03
11124;BME280;5616;42.692;23.312;2022-07-05T11:45:29;95029.78;;;34.59;33.85
11124;BME280;5616;42.692;23.312;2022-07-05T11:47:56;95026.31;;;34.59;31.60
11124;BME280;5616;42.692;23.312;2022-07-05T11:50:29;95010.19;;;34.47;29.93
11124;BME280;5616;42.692;23.312;2022-07-05T11:52:58;95025.50;;;34.46;30.42
11124;BME280;5616;42.692;23.312;2022-07-05T11:55:26;95018.38;;;34.50;31.76
11124;BME280;5616;42.692;23.312;2022-07-05T11:57:56;95008.59;;;34.66;34.69
11124;BME280;5616;42.692;23.312;2022-07-05T12:00:31;95015.19;;;34.69;30.71
11124;BME280;5616;42.692;23.312;2022-07-05T12:02:59;94998.50;;;34.75;33.00
11124;BME280;5616;42.692;23.312;2022-07-05T12:05:30;95014.28;;;34.77;32.65
11124;BME280;5616;42.692;23.312;2022-07-05T12:07:58;94991.59;;;34.74;31.47
11124;BME280;5616;42.692;23.312;2022-07-05T12:10:25;94998.50;;;34.75;30.17
11124;BME280;5616;42.692;23.312;2022-07-05T12:13:09;94992.91;;;34.80;30.95
11124;BME280;5616;42.692;23.312;2022-07-05T12:15:38;94989.66;;;34.75;30.37
11124;BME280;5616;42.692;23.312;2022-07-05T12:18:06;94996.81;;;34.59;33.11
11124;BME280;5616;42.692;23.312;2022-07-05T12:20:35;94981.75;;;34.66;30.24
11124;BME280;5616;42.692;23.312;2022-07-05T12:23:03;94983.88;;;34.73;29.50
11124;BME280;5616;42.692;23.312;2022-07-05T12:25:31;94983.63;;;34.78;29.98
11124;BME280;5616;42.692;23.312;2022-07-05T12:28:00;94991.84;;;34.49;31.78
11124;BME280;5616;42.692;23.312;2022-07-05T12:30:30;94985.97;;;34.55;30.74
11124;BME280;5616;42.692;23.312;2022-07-05T12:33:00;94981.13;;;34.49;29.61
11124;BME280;5616;42.692;23.312;2022-07-05T12:35:32;94982.59;;;34.46;30.07
11124;BME280;5616;42.692;23.312;2022-07-05T12:38:04;94987.06;;;34.42;29.16
11124;BME280;5616;42.692;23.312;2022-07-05T12:40:31;94983.25;;;34.43;30.88
11124;BME280;5616;42.692;23.312;2022-07-05T12:43:03;94985.69;;;34.36;29.88
11124;BME280;5616;42.692;23.312;2022-07-05T12:45:32;94976.41;;;34.21;29.61
11124;BME280;5616;42.692;23.312;2022-07-05T12:48:02;94973.84;;;34.25;29.16
11124;BME280;5616;42.692;23.312;2022-07-05T12:50:44;94963.81;;;34.34;29.87
11124;BME280;5616;42.692;23.312;2022-07-05T12:53:11;94965.00;;;34.24;31.12
11124;BME280;5616;42.692;23.312;2022-07-05T12:56:00;94973.22;;;34.40;31.87
11124;BME280;5616;42.692;23.312;2022-07-05T12:58:47;94956.31;;;34.52;32.26
11124;BME280;5616;42.692;23.312;2022-07-05T13:01:21;94944.72;;;34.48;32.94
11124;BME280;5616;42.692;23.312;2022-07-05T13:04:07;94956.34;;;34.39;32.25
11124;BME280;5616;42.692;23.312;2022-07-05T13:06:46;94943.69;;;34.28;32.11
11124;BME280;5616;42.692;23.312;2022-07-05T13:09:14;94942.13;;;34.39;30.88
11124;BME280;5616;42.692;23.312;2022-07-05T13:11:42;94942.56;;;34.41;31.48